Latest Coastal Weather Observations for Swan Island

IDT60701

Issued at 6:52 am EST Tuesday 24 September 2019 (issued every 10 minutes, with the page automatically refreshed every 10 minutes)

About coastal observations | Map of coastal stations | Coastal observations for TAS | Marine services | Other Formats
Station Details ID: 092123 Name: SWAN ISLAND Lat: -40.73 Lon: 148.12 Height: 15.0 m
Data from the previous 72 hours. | See also: Recent months at Swan Island
Date/Time
EST
Wind Sea
Height
m
Swell Vis
km
Cloud Weather Temp
°C
Press
hPa
Rain since
9am
mm
Dir  Spd
kts
Gust
kts
Height
m
Period
s
Dir
24/06:35am W 21 31 - - - - - - - 10.2 1020.9 0.0
24/06:30am W 21 28 - - - - - - - 10.2 1020.9 0.0
24/06:00am W 20 29 - - - - - - - 10.0 1020.7 0.0
24/05:37am W 21 32 - - - - - - - 10.1 1020.1 0.0
24/05:30am W 23 31 - - - - - - - 10.0 1020.1 0.0
24/05:20am W 22 32 - - - - - - - 10.0 1020.1 0.0
24/05:00am W 25 33 - - - - - - - 10.3 1019.8 0.0
24/04:30am W 25 31 - - - - - - - 10.1 1019.9 0.0
24/04:00am W 20 29 - - - - - - - 10.1 1020.0 0.0
24/03:30am W 20 27 - - - - - - - 10.3 1020.0 0.0
24/03:00am W 20 27 - - - - - - - 10.4 1020.1 0.0
24/02:48am W 17 27 - - - - - - - 10.3 1020.3 0.0
24/02:30am W 17 24 - - - - - - - 10.2 1020.5 0.0
24/02:00am W 16 22 - - - - - - - 10.2 1020.7 0.0
24/01:30am W 17 23 - - - - - - - 10.1 1020.9 0.0
24/01:00am W 15 22 - - - - - - - 10.1 1021.1 0.0
24/12:30am W 16 24 - - - - - - - 10.2 1021.0 0.0
24/12:00am WSW 13 19 - - - - - - - 10.3 1021.1 0.0
 
Date/Time
EST
Wind Sea
Height
m
Swell Vis
km
Cloud Weather Temp
°C
Press
hPa
Rain since
9am
mm
Dir  Spd
kts
Gust
kts
Height
m
Period
s
Dir
23/11:30pm W 14 21 - - - - - - - 10.4 1021.1 0.0
23/11:00pm W 15 21 - - - - - - - 10.7 1021.2 0.0
23/10:30pm W 15 21 - - - - - - - 10.7 1021.1 0.0
23/10:00pm W 13 17 - - - - - - - 10.9 1021.2 0.0
23/09:30pm W 15 22 - - - - - - - 11.2 1021.0 0.0
23/09:00pm W 15 20 - - - - - - - 11.3 1020.9 0.0
23/08:30pm W 15 21 - - - - - - - 11.3 1020.7 0.0
23/08:00pm W 17 23 - - - - - - - 11.4 1020.5 0.0
23/07:30pm W 16 22 - - - - - - - 11.4 1020.3 0.0
23/07:00pm W 15 21 - - - - - - - 11.4 1019.9 0.0
23/06:30pm W 17 22 - - - - - - - 11.5 1019.8 0.0
23/06:00pm W 17 22 - - - - - - - 11.5 1019.7 0.0
23/05:30pm W 13 20 - - - - - - - 11.8 1019.3 0.0
23/05:00pm W 13 20 - - - - - - - 12.1 1019.1 0.0
23/04:30pm W 14 23 - - - - - - - 12.3 1018.9 0.0
23/04:00pm W 14 22 - - - - - - - 12.5 1018.7 0.0
23/03:30pm WNW 18 25 - - - - - - - 12.3 1018.6 0.0
23/03:00pm WNW 13 20 - - - - - - - 12.5 1018.5 0.0
23/02:30pm WNW 13 20 - - - - - - - 12.8 1018.7 0.0
23/02:00pm WNW 13 20 - - - - - - - 12.8 1018.8 0.0
23/01:30pm WNW 13 19 - - - - - - - 13.2 1018.8 0.0
23/01:00pm WNW 12 16 - - - - - - - 13.0 1018.8 0.0
23/12:30pm WNW 10 14 - - - - - - - 12.9 1018.8 0.0
23/12:00pm WNW 8 11 - - - - - - - 12.7 1019.0 0.0
23/11:30am NW 7 10 - - - - - - - 12.4 1019.1 0.0
23/11:00am NW 8 10 - - - - - - - 12.4 1019.2 0.0
23/10:30am NW 7 9 - - - - - - - 12.3 1019.5 0.0
23/10:00am NW 6 9 - - - - - - - 11.2 1019.7 0.0
23/09:30am WNW 4 6 - - - - - - - 10.8 1019.5 0.0
23/09:00am WNW 7 10 - - - - - - Recent precip. 9.8 1019.5 0.8
23/08:30am NW 8 11 - - - - - - - 9.9 1019.6 0.6
23/08:00am NW 8 10 - - - - - - - 9.6 1019.3 0.6
23/07:30am WNW 8 10 - - - - - - - 9.6 1019.1 0.6
23/07:00am WNW 6 9 - - - - - - - 9.3 1018.9 0.6
23/06:30am WNW 6 9 - - - - - - - 8.8 1018.8 0.6
23/06:00am WNW 8 11 - - - - - - Recent precip. 8.6 1019.0 0.6
23/05:30am W 7 12 - - - - - - - 8.8 1019.1 0.6
23/05:00am WSW 3 5 - - - - - - - 8.2 1019.2 0.0
23/04:30am SW 4 5 - - - - - - - 8.1 1019.1 0.0
23/04:00am WSW 4 5 - - - - - - - 8.1 1019.1 0.0
23/03:30am WSW 4 6 - - - - - - - 8.2 1019.0 0.0
23/03:00am WSW 5 7 - - - - - - - 8.5 1019.1 0.0
23/02:30am WSW 5 9 - - - - - - - 9.1 1019.3 0.0
23/02:00am W 11 14 - - - - - - - 10.0 1019.6 0.0
23/01:30am W 12 17 - - - - - - - 10.0 1019.8 0.0
23/01:00am W 12 19 - - - - - - - 10.1 1020.0 0.0
23/12:30am WNW 10 15 - - - - - - - 10.2 1020.1 0.0
23/12:00am WNW 11 17 - - - - - - - 10.3 1020.3 0.0
 
Date/Time
EST
Wind Sea
Height
m
Swell Vis
km
Cloud Weather Temp
°C
Press
hPa
Rain since
9am
mm
Dir  Spd
kts
Gust
kts
Height
m
Period
s
Dir
22/11:30pm W 12 18 - - - - - - - 10.1 1020.3 0.0
22/11:00pm WNW 13 17 - - - - - - - 10.4 1020.3 0.0
22/10:30pm W 11 17 - - - - - - - 10.2 1020.6 0.0
22/10:00pm WNW 15 20 - - - - - - - 10.6 1020.6 0.0
22/09:30pm WNW 15 21 - - - - - - - 10.5 1020.6 0.0
22/09:00pm WNW 14 21 - - - - - - - 10.5 1020.7 0.0
22/08:30pm WNW 17 23 - - - - - - - 10.5 1020.6 0.0
22/08:00pm WNW 18 25 - - - - - - - 10.6 1020.5 0.0
22/07:30pm WNW 18 25 - - - - - - - 10.5 1020.3 0.0
22/07:00pm WNW 16 21 - - - - - - - 10.6 1019.9 0.0
22/06:30pm WNW 16 24 - - - - - - - 10.3 1019.6 0.0
22/06:00pm WNW 19 25 - - - - - - - 10.4 1019.3 0.0
22/05:30pm WNW 17 23 - - - - - - - 11.1 1019.2 0.0
22/05:00pm WNW 18 25 - - - - - - - 10.9 1018.9 0.0
22/04:30pm WNW 17 23 - - - - - - - 11.4 1018.8 0.0
22/04:00pm WNW 17 23 - - - - - - - 11.9 1018.7 0.0
22/03:41pm W 15 25 - - - - - - - 12.1 1018.6 0.0
22/03:30pm W 16 22 - - - - - - - 11.9 1018.6 0.0
22/03:00pm WNW 17 25 - - - - - - - 12.1 1018.5 0.0
22/02:43pm WNW 15 26 - - - - - - - 12.3 1018.4 0.0
22/02:30pm W 14 21 - - - - - - - 12.7 1018.4 0.0
22/02:18pm W 15 25 - - - - - - - 12.9 1018.5 0.0
22/02:00pm WNW 16 25 - - - - - - - 12.6 1018.5 0.0
22/01:37pm W 16 27 - - - - - - - 12.7 1018.7 0.0
22/01:30pm WNW 17 24 - - - - - - - 12.5 1018.7 0.0
22/01:00pm W 15 23 - - - - - - - 12.6 1018.7 0.0
22/12:58pm W 15 26 - - - - - - - 13.1 1018.7 0.0
22/12:30pm W 17 24 - - - - - - - 12.6 1018.6 0.0
22/12:06pm W 16 27 - - - - - - - 12.6 1018.7 0.0
22/12:00pm W 17 23 - - - - - - - 13.1 1018.7 0.0
22/11:30am W 17 23 - - - - - - - 12.7 1018.7 0.0
22/11:00am W 16 25 - - - - - - - 12.8 1018.8 0.0
22/10:44am W 17 28 - - - - - - - 12.4 1018.7 0.0
22/10:30am W 17 26 - - - - - - - 12.3 1018.7 0.0
22/10:00am W 17 24 - - - - - - - 11.8 1018.6 0.0
22/09:30am W 14 21 - - - - - - - 11.8 1018.6 0.0
22/09:00am W 15 24 - - - - - - - 11.4 1018.5 5.4
22/08:30am W 16 27 - - - - - - - 10.0 1018.2 5.4
22/08:06am W 17 27 - - - - - - - 11.0 1017.8 5.4
22/08:00am W 20 29 - - - - - - - 10.9 1017.7 5.4
22/07:55am W 18 29 - - - - - - - 10.4 1017.7 5.4
22/07:30am W 16 24 - - - - - - - 9.9 1017.4 5.4
22/07:00am W 18 24 - - - - - - - 10.6 1016.9 5.4
22/06:30am W 16 24 - - - - - - - 10.1 1016.4 5.4
22/06:13am W 16 27 - - - - - - - 9.9 1016.1 5.4
22/06:00am W 17 24 - - - - - - - 9.8 1015.9 5.4
22/05:38am W 15 25 - - - - - - - 9.8 1015.5 5.4
22/05:30am W 15 23 - - - - - - - 10.2 1015.3 5.4
22/05:10am W 16 26 - - - - - - - 10.0 1015.2 5.4
22/05:00am W 19 27 - - - - - - - 9.8 1015.0 5.4
22/04:30am W 18 25 - - - - - - - 9.8 1014.7 5.4
22/04:09am W 17 27 - - - - - - - 9.9 1014.6 5.4
22/04:00am W 18 28 - - - - - - - 9.8 1014.5 5.4
22/03:58am W 17 27 - - - - - - - 9.9 1014.4 5.4
22/03:30am W 16 24 - - - - - - - 10.1 1014.3 5.4
22/03:09am WNW 18 28 - - - - - - - 10.1 1014.2 5.4
22/03:00am W 17 26 - - - - - - - 10.1 1014.1 5.4
22/02:30am W 16 27 - - - - - - - 10.1 1013.9 5.4
22/02:04am W 19 29 - - - - - - - 10.1 1013.3 5.4
22/02:00am W 20 29 - - - - - - - 10.0 1013.2 5.4
22/01:30am W 16 27 - - - - - - - 10.0 1013.1 5.4
22/01:27am W 16 27 - - - - - - - 9.9 1013.0 5.4
22/01:00am WNW 19 27 - - - - - - - 10.2 1012.9 5.4
22/12:38am WNW 18 28 - - - - - - - 10.4 1013.1 5.4
22/12:30am WNW 21 27 - - - - - - - 10.5 1013.1 5.4
22/12:00am WNW 20 28 - - - - - - - 10.5 1012.7 5.4
 
Date/Time
EST
Wind Sea
Height
m
Swell Vis
km
Cloud Weather Temp
°C
Press
hPa
Rain since
9am
mm
Dir  Spd
kts
Gust
kts
Height
m
Period
s
Dir
21/11:30pm WNW 19 29 - - - - - - - 10.6 1012.4 5.4
21/11:00pm WNW 20 29 - - - - - - - 10.5 1012.0 5.4
21/10:30pm WNW 20 30 - - - - - - - 10.6 1011.8 5.4
21/10:00pm WNW 21 28 - - - - - - - 10.7 1011.4 5.4
21/09:34pm WNW 21 31 - - - - - - - 10.8 1011.2 5.4
21/09:30pm WNW 21 28 - - - - - - - 11.0 1011.2 5.4
21/09:01pm WNW 19 29 - - - - - - - 11.0 1010.8 5.4
21/09:00pm WNW 19 27 - - - - - - - 11.0 1010.8 5.4
21/08:30pm WNW 20 27 - - - - - - - 11.1 1010.3 5.4
21/08:00pm WNW 17 25 - - - - - - - 11.2 1010.2 5.4
21/07:30pm WNW 20 28 - - - - - - - 11.6 1009.6 5.4
21/07:00pm WNW 20 26 - - - - - - - 11.9 1008.8 5.4
21/06:30pm WNW 20 27 - - - - - - - 12.1 1008.3 5.4
21/06:00pm WNW 20 27 - - - - - - - 12.6 1007.7 5.4
21/05:30pm NW 20 27 - - - - - - - 12.8 1007.4 5.4
21/05:00pm NW 18 22 - - - - - - - 12.6 1007.1 5.4
21/04:30pm NW 19 25 - - - - - - - 12.3 1006.9 5.4
21/04:12pm NW 19 30 - - - - - - - 12.5 1007.5 3.8
21/04:00pm NW 18 25 - - - - - - - 12.9 1007.5 3.0
21/03:58pm NW 19 30 - - - - - - - 12.9 1007.4 3.0
21/03:44pm NW 23 34 - - - - - - - 13.4 1007.2 2.8
21/03:32pm NW 31 41 - - - - - - - 14.1 1006.3 2.2
21/03:30pm NW 31 39 - - - - - - - 14.2 1006.2 2.2
21/03:28pm NW 29 39 - - - - - - - 14.4 1006.0 2.2
21/03:18pm NNW 17 27 - - - - - - - 15.0 1005.4 1.4
21/03:00pm N 16 18 - - - - - - Recent precip. 15.2 1004.2 1.0
21/02:30pm N 11 15 - - - - - - - 14.4 1004.5 0.4
21/02:00pm N 22 29 - - - - - - - 14.8 1005.4 0.4
21/01:41pm NNW 18 21 - - - - - - - 15.2 1006.3 0.0
21/01:30pm NW 21 27 - - - - - - - 15.4 1006.4 0.0
21/01:18pm NNW 23 29 - - - - - - - 15.9 1005.9 0.0
21/01:00pm N 27 33 - - - - - - - 16.9 1005.7 0.0
21/12:30pm N 20 24 - - - - - - - 16.4 1005.4 0.0
21/12:00pm N 19 23 - - - - - - - 15.4 1005.9 0.0
21/11:30am NNE 18 25 - - - - - - - 15.8 1005.9 0.0
21/11:00am N 26 34 - - - - - - - 16.4 1006.3 0.0
21/10:30am N 22 28 - - - - - - - 16.9 1006.8 0.0
21/10:00am NNE 21 28 - - - - - - - 16.5 1006.5 0.0
21/09:30am N 27 35 - - - - - - - 16.5 1006.9 0.0
21/09:08am NNE 20 31 - - - - - - - 16.2 1007.8 0.0
21/09:00am N 21 28 - - - - - - - 16.2 1007.6 0.0
21/08:45am N 24 34 - - - - - - - 16.0 1007.6 0.0
21/08:30am N 27 33 - - - - - - - 15.9 1007.7 0.0
21/08:00am N 27 32 - - - - - - - 15.8 1007.7 0.0
21/07:30am N 25 32 - - - - - - - 15.6 1008.0 0.0
21/07:00am N 22 30 - - - - - - - 15.1 1008.4 0.0

Other formats

Comma delimited format used in spreadsheet applications
http://www.bom.gov.au/fwo/IDT60701/IDT60701.95985.axf

JavaScript Object Notation format (JSON) in row-major order
http://www.bom.gov.au/fwo/IDT60701/IDT60701.95985.json

Data quality

Most of these data are generated automatically and are frequently updated. Quality checks on data are not normally performed. It is possible for incorrect values to appear. Refer to information at About Latest Weather Observations and please check the disclaimer before using these data.